Time;durP1;ratioP1;P1;durP2;ratioP2;P2;SDS_P1;SDS_P2;PMS_P1;PMS_P2;Temp;Humidity;BMP_temperature;BMP_pressure;BME280_temperature;BME280_humidity;BME280_pressure;Samples;Min_cycle;Max_cycle;Signal;HPM_P1;HPM_P2
2023/04/08 00:02:16;;;;;;;6.68;5.00;;;;;;;18.31;42.64;101064.53;5054094;28;20048;-46
2023/04/08 00:04:43;;;;;;;6.80;5.15;;;;;;;18.32;42.76;101061.75;5053836;28;20514;-47
2023/04/08 00:07:10;;;;;;;5.75;4.50;;;;;;;18.31;42.76;101059.19;5054042;28;20049;-48
2023/04/08 00:09:37;;;;;;;5.97;5.25;;;;;;;18.31;42.64;101065.44;5054095;28;20048;-48
2023/04/08 00:12:05;;;;;;;6.40;4.90;;;;;;;18.30;42.84;101063.69;5054257;28;20045;-48
2023/04/08 00:14:32;;;;;;;8.32;4.88;;;;;;;18.31;42.73;101069.91;5053019;28;20097;-50
2023/04/08 00:17:00;;;;;;;6.40;4.72;;;;;;;18.29;42.65;101070.88;5053973;28;20491;-49
2023/04/08 00:19:28;;;;;;;8.23;5.63;;;;;;;18.31;42.80;101073.47;5053722;28;20363;-52
2023/04/08 00:21:55;;;;;;;6.25;5.13;;;;;;;18.31;42.70;101059.19;5053795;28;20045;-52
2023/04/08 00:24:22;;;;;;;6.30;5.18;;;;;;;18.29;42.51;101068.22;5053548;28;20045;-55
2023/04/08 00:26:50;;;;;;;8.55;5.10;;;;;;;18.31;42.75;101072.59;5053985;28;20049;-45
2023/04/08 00:29:18;;;;;;;7.40;5.25;;;;;;;18.29;42.79;101068.22;5052472;28;20063;-47
2023/04/08 00:31:45;;;;;;;6.03;5.03;;;;;;;18.30;42.85;101077.09;5052888;28;20037;-46
2023/04/08 00:34:13;;;;;;;6.57;4.80;;;;;;;18.29;42.92;101081.59;5053853;28;20071;-47
2023/04/08 00:36:40;;;;;;;6.85;5.25;;;;;;;18.31;42.83;101080.63;5053776;28;20045;-51
2023/04/08 00:39:07;;;;;;;7.93;4.97;;;;;;;18.29;42.87;101081.59;5053828;28;20048;-52
2023/04/08 00:41:35;;;;;;;5.97;4.80;;;;;;;18.30;42.88;101074.41;5053781;28;20055;-50
2023/04/08 00:44:02;;;;;;;7.55;5.30;;;;;;;18.29;42.87;101073.56;5053478;28;20403;-52
2023/04/08 00:46:32;;;;;;;6.25;4.82;;;;;;;18.29;42.87;101078.94;5053538;28;20052;-51
2023/04/08 00:49:01;;;;;;;5.63;4.32;;;;;;;18.29;42.89;101070.88;5052541;28;20514;-50
2023/04/08 00:51:30;;;;;;;7.32;5.18;;;;;;;18.29;42.92;101076.25;5051799;28;20045;-51
2023/04/08 00:53:59;;;;;;;5.60;4.85;;;;;;;18.29;42.96;101073.56;5053340;28;20487;-50
2023/04/08 00:56:26;;;;;;;6.43;4.72;;;;;;;18.29;42.97;101067.34;5053542;28;20052;-45
2023/04/08 00:58:54;;;;;;;6.30;4.93;;;;;;;18.29;43.07;101068.22;5053326;28;20404;-46
2023/04/08 01:01:51;;;;;;;5.68;4.38;;;;;;;18.29;43.11;101075.41;5052357;28;20053;-45
2023/04/08 01:04:51;;;;;;;6.68;5.15;;;;;;;18.29;43.03;101064.69;5049910;28;20053;-51
2023/04/08 01:07:36;;;;;;;4.80;3.97;;;;;;;18.29;43.20;101059.31;5053303;28;20056;-45
2023/04/08 01:10:14;;;;;;;4.75;3.95;;;;;;;18.29;43.16;101064.69;5052457;28;20049;-47
2023/04/08 01:12:53;;;;;;;5.18;4.38;;;;;;;18.30;43.15;101061.00;5051952;28;20053;-45
2023/04/08 01:15:21;;;;;;;6.65;5.05;;;;;;;18.28;43.32;101055.78;5053216;28;20054;-46
2023/04/08 01:17:53;;;;;;;5.47;4.50;;;;;;;18.28;43.20;101047.75;5052087;28;20060;-46
2023/04/08 01:20:22;;;;;;;5.47;4.43;;;;;;;18.28;43.38;101053.09;5051905;28;20053;-45
2023/04/08 01:22:59;;;;;;;6.35;4.78;;;;;;;18.28;43.15;101047.75;5053081;28;20049;-47
2023/04/08 01:25:33;;;;;;;6.22;4.50;;;;;;;18.29;43.13;101048.59;5052808;28;20053;-51
2023/04/08 01:28:06;;;;;;;5.10;4.10;;;;;;;18.29;43.21;101059.31;5051917;28;20051;-50
2023/04/08 01:30:36;;;;;;;5.80;5.13;;;;;;;18.28;43.32;101042.38;5053601;28;20049;-53
2023/04/08 01:33:05;;;;;;;5.43;4.07;;;;;;;18.28;43.31;101038.84;5052613;28;20057;-54
2023/04/08 01:35:32;;;;;;;5.35;4.00;;;;;;;18.29;43.13;101045.91;5053013;28;20048;-47
2023/04/08 01:38:02;;;;;;;5.10;4.00;;;;;;;18.27;43.27;101038.00;5053087;28;20053;-48
2023/04/08 01:40:31;;;;;;;4.63;4.13;;;;;;;18.28;43.19;101047.75;5052994;28;20536;-47
2023/04/08 01:43:00;;;;;;;5.18;4.20;;;;;;;18.28;43.36;101041.53;5053243;28;20364;-48
2023/04/08 01:45:29;;;;;;;6.43;4.50;;;;;;;18.27;43.23;101045.16;5055403;28;20060;-53
2023/04/08 01:47:58;;;;;;;5.28;4.35;;;;;;;18.26;43.34;101049.69;5056631;28;20056;-52
2023/04/08 01:50:27;;;;;;;6.45;4.20;;;;;;;18.27;43.18;101051.41;5055312;28;20518;-51
2023/04/08 01:52:57;;;;;;;5.88;4.13;;;;;;;18.29;43.40;101056.63;5056598;28;20053;-50
2023/04/08 01:55:26;;;;;;;6.80;4.43;;;;;;;18.28;43.46;101052.25;5056859;28;20502;-53
2023/04/08 01:57:56;;;;;;;5.13;4.53;;;;;;;18.28;43.40;101052.25;5056602;28;20051;-50
2023/04/08 02:00:28;;;;;;;5.00;4.22;;;;;;;18.27;43.45;101050.53;5054939;28;20053;-48
2023/04/08 02:02:56;;;;;;;6.13;4.28;;;;;;;18.28;43.43;101049.56;5055632;28;20396;-47
2023/04/08 02:05:24;;;;;;;4.80;4.25;;;;;;;18.28;43.45;101052.25;5056351;28;20044;-49
2023/04/08 02:07:51;;;;;;;6.45;4.20;;;;;;;18.28;43.54;101054.94;5054561;28;20063;-46
2023/04/08 02:10:19;;;;;;;5.97;4.65;;;;;;;18.27;43.53;101056.78;5056466;28;20426;-45
2023/04/08 02:12:47;;;;;;;5.82;4.57;;;;;;;18.28;43.49;101052.25;5054851;28;20392;-45
2023/04/08 02:15:15;;;;;;;6.97;4.35;;;;;;;18.28;43.63;101053.09;5056362;28;20045;-48
2023/04/08 02:17:54;;;;;;;5.60;4.15;;;;;;;18.28;43.64;101058.47;5056224;28;20048;-48
2023/04/08 02:20:32;;;;;;;7.90;4.25;;;;;;;18.28;43.68;101055.78;5056527;28;20052;-47
2023/04/08 02:23:18;;;;;;;6.60;4.60;;;;;;;18.28;43.72;101058.47;5055244;28;20049;-46
2023/04/08 02:25:47;;;;;;;6.10;4.20;;;;;;;18.28;43.71;101065.66;5055902;28;20056;-50
2023/04/08 02:28:17;;;;;;;9.45;4.30;;;;;;;18.27;43.64;101054.09;5055914;28;20507;-50
2023/04/08 02:30:48;;;;;;;4.53;4.00;;;;;;;18.28;43.63;101062.97;5055853;28;20045;-52
2023/04/08 02:33:19;;;;;;;4.85;4.00;;;;;;;18.27;43.64;101062.13;5056000;28;20060;-50
2023/04/08 02:35:49;;;;;;;6.05;4.65;;;;;;;18.28;43.72;101068.34;5054841;28;20395;-50
2023/04/08 02:38:17;;;;;;;6.80;4.50;;;;;;;18.27;43.66;101070.16;5054540;28;20064;-51
2023/04/08 02:40:44;;;;;;;4.82;4.32;;;;;;;18.27;43.71;101072.84;5055782;28;20395;-50
2023/04/08 02:43:11;;;;;;;5.82;3.97;;;;;;;18.27;43.61;101070.16;5054127;28;20499;-51
2023/04/08 02:45:43;;;;;;;6.72;4.50;;;;;;;18.26;43.63;101078.31;5054687;28;20045;-47
2023/04/08 02:48:11;;;;;;;7.63;4.35;;;;;;;18.26;43.57;101081.84;5055797;28;20048;-49
2023/04/08 02:50:39;;;;;;;4.15;3.25;;;;;;;18.27;43.67;101088.94;5055771;28;20479;-45
2023/04/08 02:53:08;;;;;;;4.82;3.88;;;;;;;18.27;43.79;101083.56;5055664;28;20056;-49
2023/04/08 02:55:36;;;;;;;5.63;4.28;;;;;;;18.28;43.65;101081.75;5053247;28;20045;-45
2023/04/08 02:58:04;;;;;;;5.32;4.28;;;;;;;18.27;43.65;101083.56;5055483;28;20397;-46
2023/04/08 03:00:31;;;;;;;5.90;4.10;;;;;;;18.27;43.72;101080.88;5055352;28;20049;-48
2023/04/08 03:02:58;;;;;;;5.78;3.90;;;;;;;18.27;43.83;101071.97;5054264;28;20052;-46
2023/04/08 03:05:26;;;;;;;5.05;3.58;;;;;;;18.28;43.81;101087.09;5055509;28;20045;-46
2023/04/08 03:07:54;;;;;;;4.78;4.05;;;;;;;18.28;43.90;101077.22;5055206;28;20048;-48
2023/04/08 03:10:21;;;;;;;4.32;3.25;;;;;;;18.27;43.78;101071.97;5055134;28;20491;-46
2023/04/08 03:12:48;;;;;;;5.40;4.13;;;;;;;18.26;43.79;101073.81;5055156;28;20443;-46
2023/04/08 03:15:16;;;;;;;6.22;4.30;;;;;;;18.27;43.91;101077.31;5055351;28;20048;-49
2023/04/08 03:17:43;;;;;;;5.78;4.03;;;;;;;18.27;43.89;101071.97;5055247;28;20057;-52
2023/04/08 03:20:10;;;;;;;5.53;3.83;;;;;;;18.27;43.77;101074.66;5054076;28;20045;-53
2023/04/08 03:22:38;;;;;;;4.45;3.60;;;;;;;18.26;43.84;101079.16;5054976;28;20037;-51
2023/04/08 03:25:05;;;;;;;4.75;4.03;;;;;;;18.26;43.89;101073.81;5054878;28;20053;-46
2023/04/08 03:27:33;;;;;;;4.57;4.03;;;;;;;18.26;43.88;101073.81;5054549;28;20045;-47
2023/04/08 03:30:01;;;;;;;4.45;3.50;;;;;;;18.25;43.83;101077.47;5054746;28;20045;-46
2023/04/08 03:32:28;;;;;;;5.25;4.05;;;;;;;18.27;43.98;101072.84;5054995;28;20037;-47
2023/04/08 03:34:56;;;;;;;5.43;3.75;;;;;;;18.27;43.93;101078.22;5054949;28;20510;-45
2023/04/08 03:37:23;;;;;;;5.03;3.92;;;;;;;18.28;43.88;101079.91;5054796;28;20045;-46
2023/04/08 03:39:50;;;;;;;5.75;3.85;;;;;;;18.27;43.90;101072.84;5054600;28;20053;-45
2023/04/08 03:42:18;;;;;;;4.72;3.72;;;;;;;18.27;44.03;101077.31;5054579;28;20051;-47
2023/04/08 03:44:45;;;;;;;7.75;4.20;;;;;;;18.27;43.92;101083.56;5054632;28;20041;-52
2023/04/08 03:47:12;;;;;;;6.38;3.83;;;;;;;18.27;43.76;101088.03;5054573;28;20045;-54
2023/04/08 03:49:40;;;;;;;4.80;3.95;;;;;;;18.26;43.81;101084.53;5054457;28;20051;-51
2023/04/08 03:52:07;;;;;;;4.50;3.72;;;;;;;18.26;43.74;101097.06;5054412;28;20049;-52
2023/04/08 03:54:34;;;;;;;5.35;3.90;;;;;;;18.26;43.85;101095.25;5054186;28;20387;-46
2023/04/08 03:57:02;;;;;;;4.75;3.42;;;;;;;18.27;43.78;101096.09;5054448;28;20383;-48
2023/04/08 03:59:29;;;;;;;4.88;3.95;;;;;;;18.25;43.84;101108.78;5054297;28;20048;-47
2023/04/08 04:01:56;;;;;;;4.80;3.63;;;;;;;18.26;43.87;101110.47;5054722;28;20055;-48
2023/04/08 04:04:24;;;;;;;4.35;3.67;;;;;;;18.25;43.94;101109.63;5054254;28;20052;-53
2023/04/08 04:06:51;;;;;;;5.60;3.70;;;;;;;18.25;43.79;101114.97;5053896;28;20510;-47
2023/04/08 04:09:19;;;;;;;4.10;3.70;;;;;;;18.25;43.90;101123.00;5054071;28;20044;-46
2023/04/08 04:11:46;;;;;;;4.93;3.95;;;;;;;18.26;43.83;101124.72;5053988;28;20056;-48
2023/04/08 04:14:13;;;;;;;5.30;3.97;;;;;;;18.24;43.79;101121.31;5054132;28;20056;-46
2023/04/08 04:16:41;;;;;;;4.78;3.38;;;;;;;18.25;43.79;101122.16;5054095;28;20403;-45
2023/04/08 04:19:08;;;;;;;4.47;3.60;;;;;;;18.25;43.83;101120.34;5054035;28;20049;-47
2023/04/08 04:21:36;;;;;;;5.32;3.22;;;;;;;18.25;43.71;101116.81;5053876;28;20056;-46
2023/04/08 04:24:03;;;;;;;5.65;3.72;;;;;;;18.24;43.63;101115.97;5053729;28;20048;-45
2023/04/08 04:26:30;;;;;;;4.25;3.50;;;;;;;18.24;43.76;101121.31;5053508;28;20037;-51
2023/04/08 04:28:58;;;;;;;5.90;3.88;;;;;;;18.24;43.72;101124.00;5053723;28;20055;-52
2023/04/08 04:31:25;;;;;;;5.45;3.97;;;;;;;18.24;43.76;101115.97;5053596;28;20060;-51
2023/04/08 04:33:53;;;;;;;4.53;3.47;;;;;;;18.24;43.77;101120.47;5052598;28;20045;-50
2023/04/08 04:36:20;;;;;;;4.57;3.58;;;;;;;18.24;43.85;101126.69;5053928;28;20056;-45
2023/04/08 04:38:49;;;;;;;4.93;3.97;;;;;;;18.24;43.88;101124.00;5053684;28;20045;-46
2023/04/08 04:41:17;;;;;;;6.50;3.78;;;;;;;18.23;43.79;101124.97;5053327;28;20056;-46
2023/04/08 04:43:44;;;;;;;4.97;3.55;;;;;;;18.24;43.72;101121.31;5053446;28;20071;-50
2023/04/08 04:46:12;;;;;;;4.78;3.80;;;;;;;18.24;43.76;101123.16;5053572;28;20037;-49
2023/04/08 04:48:39;;;;;;;4.35;3.38;;;;;;;18.23;43.63;101122.28;5053607;28;20041;-46
2023/04/08 04:51:06;;;;;;;6.40;4.05;;;;;;;18.24;43.87;101125.81;5053377;28;20487;-46
2023/04/08 04:53:34;;;;;;;4.72;3.42;;;;;;;18.24;43.76;101125.81;5053705;28;20040;-48
2023/04/08 04:56:01;;;;;;;4.90;3.28;;;;;;;18.22;43.94;101122.41;5053376;28;20041;-47
2023/04/08 04:58:29;;;;;;;5.05;3.65;;;;;;;18.23;43.80;101119.63;5053435;28;20410;-49
2023/04/08 05:00:57;;;;;;;4.97;3.70;;;;;;;18.22;43.77;101125.91;5053392;28;20049;-48
2023/04/08 05:03:24;;;;;;;4.57;3.67;;;;;;;18.22;43.78;101127.75;5053269;28;20120;-47
2023/04/08 05:05:53;;;;;;;4.38;3.15;;;;;;;18.23;43.87;101130.34;5053606;28;20041;-50
2023/04/08 05:08:20;;;;;;;3.97;3.00;;;;;;;18.23;43.92;101137.50;5053340;28;20045;-51
2023/04/08 05:10:49;;;;;;;4.75;3.58;;;;;;;18.23;43.90;101138.38;5053242;28;20049;-51
2023/04/08 05:13:17;;;;;;;5.07;3.90;;;;;;;18.22;43.90;101139.31;5053642;28;20044;-51
2023/04/08 05:15:44;;;;;;;4.75;3.55;;;;;;;18.22;43.98;101139.31;5053382;28;20064;-51
2023/04/08 05:18:12;;;;;;;4.65;3.75;;;;;;;18.22;43.82;101139.31;5054134;28;20049;-50
2023/04/08 05:20:40;;;;;;;4.65;3.28;;;;;;;18.22;43.93;101136.63;5057394;28;20387;-53
2023/04/08 05:23:07;;;;;;;4.28;3.83;;;;;;;18.21;43.79;101137.63;5057327;28;20049;-50
2023/04/08 05:25:35;;;;;;;4.72;3.83;;;;;;;18.22;43.90;101139.31;5056983;28;20057;-53
2023/04/08 05:28:03;;;;;;;4.40;3.42;;;;;;;18.22;43.88;101138.47;5057109;28;20045;-54
2023/04/08 05:30:30;;;;;;;4.25;3.40;;;;;;;18.22;43.89;101150.03;5056791;28;20048;-53
2023/04/08 05:32:58;;;;;;;4.65;3.85;;;;;;;18.23;43.90;101151.78;5056947;28;20055;-51
2023/04/08 05:35:27;;;;;;;5.80;3.95;;;;;;;18.22;43.94;101150.03;5057113;28;20041;-48
2023/04/08 05:37:55;;;;;;;5.05;3.80;;;;;;;18.22;44.00;101150.03;5057016;28;20052;-50
2023/04/08 05:40:22;;;;;;;5.55;4.07;;;;;;;18.22;43.90;101154.56;5057005;28;20380;-49
2023/04/08 05:42:50;;;;;;;5.50;3.65;;;;;;;18.22;44.00;101155.41;5057075;28;20045;-48
2023/04/08 05:45:17;;;;;;;5.47;3.95;;;;;;;18.22;43.97;101150.03;5056768;28;20045;-54
2023/04/08 05:47:44;;;;;;;5.85;4.43;;;;;;;18.21;44.03;101148.34;5056919;28;20041;-52
2023/04/08 05:50:12;;;;;;;6.00;4.75;;;;;;;18.22;43.96;101154.56;5056770;28;20056;-51
2023/04/08 05:52:45;;;;;;;6.30;3.83;;;;;;;18.21;43.82;101153.69;5056702;28;20048;-51
2023/04/08 05:55:13;;;;;;;4.57;3.72;;;;;;;18.22;44.01;101159.91;5056976;28;20041;-50
2023/04/08 05:57:40;;;;;;;5.07;3.80;;;;;;;18.22;43.97;101157.22;5056629;28;20048;-52
2023/04/08 06:00:09;;;;;;;5.78;3.65;;;;;;;18.21;44.11;101159.06;5056627;28;20052;-50
2023/04/08 06:02:37;;;;;;;5.07;3.88;;;;;;;18.21;43.97;101161.75;5056613;28;20052;-48
2023/04/08 06:05:05;;;;;;;5.20;4.22;;;;;;;18.21;44.00;101164.41;5056784;28;20403;-48
2023/04/08 06:07:33;;;;;;;4.82;3.88;;;;;;;18.21;44.06;101160.88;5056234;28;20041;-46
2023/04/08 06:10:01;;;;;;;7.30;4.53;;;;;;;18.21;44.05;101167.09;5056475;28;20048;-45
2023/04/08 06:12:28;;;;;;;5.68;3.90;;;;;;;18.21;44.10;101171.59;5056435;28;20056;-47
2023/04/08 06:14:56;;;;;;;5.80;3.63;;;;;;;18.21;44.15;101169.78;5056203;28;20045;-49
2023/04/08 06:17:23;;;;;;;6.88;4.38;;;;;;;18.22;44.03;101170.63;5056226;28;20041;-49
2023/04/08 06:19:51;;;;;;;5.43;4.18;;;;;;;18.22;44.15;101174.16;5055973;28;20048;-49
2023/04/08 06:22:18;;;;;;;5.07;3.70;;;;;;;18.21;44.11;101180.50;5055984;28;20056;-46
2023/04/08 06:24:46;;;;;;;4.50;3.63;;;;;;;18.20;44.08;101181.47;5056226;28;20053;-47
2023/04/08 06:27:14;;;;;;;6.25;4.05;;;;;;;18.21;44.10;101182.31;5055961;28;20041;-47
2023/04/08 06:29:42;;;;;;;5.55;4.03;;;;;;;18.21;44.14;101179.66;5055811;28;20399;-49
2023/04/08 06:32:10;;;;;;;5.50;4.45;;;;;;;18.22;44.12;101192.91;5055879;28;20044;-47
2023/04/08 06:34:37;;;;;;;5.43;4.30;;;;;;;18.22;44.04;101186.72;5055964;28;20586;-47
2023/04/08 06:37:05;;;;;;;4.72;4.05;;;;;;;18.22;44.20;101184.03;5054158;28;20048;-47
2023/04/08 06:39:32;;;;;;;6.10;4.20;;;;;;;18.22;44.00;101184.03;5055759;28;20045;-46
2023/04/08 06:42:00;;;;;;;5.22;4.30;;;;;;;18.22;43.98;101192.91;5055674;28;20047;-45
2023/04/08 06:45:03;;;;;;;5.60;4.70;;;;;;;18.22;44.05;101187.56;5060490;28;20388;-50
2023/04/08 06:47:31;;;;;;;6.43;4.35;;;;;;;18.23;44.08;101191.09;5055572;28;20037;-49
2023/04/08 06:49:58;;;;;;;4.90;4.40;;;;;;;18.22;44.12;101186.72;5055589;28;20045;-51
2023/04/08 06:52:26;;;;;;;6.85;4.47;;;;;;;18.22;44.03;101192.91;5055390;28;20041;-49
2023/04/08 06:54:53;;;;;;;5.78;4.80;;;;;;;18.22;44.09;101192.06;5055653;28;20488;-50
2023/04/08 06:57:20;;;;;;;5.53;4.63;;;;;;;18.21;43.96;101193.91;5055194;28;20045;-51
2023/04/08 06:59:48;;;;;;;7.00;4.72;;;;;;;18.21;43.99;101193.91;5055485;28;20061;-50
2023/04/08 07:02:15;;;;;;;6.18;4.70;;;;;;;18.22;43.98;101195.59;5055562;28;20369;-50
2023/04/08 07:04:42;;;;;;;6.55;5.35;;;;;;;18.22;43.91;101192.91;5055434;28;20049;-49
2023/04/08 07:07:13;;;;;;;6.30;5.07;;;;;;;18.22;44.08;101192.91;5055270;28;20407;-52
2023/04/08 07:09:42;;;;;;;7.93;4.70;;;;;;;18.22;44.18;101192.91;5055245;28;20044;-49
2023/04/08 07:12:09;;;;;;;6.68;4.55;;;;;;;18.22;43.99;101195.59;5055323;28;20430;-53
2023/04/08 07:14:36;;;;;;;6.90;5.38;;;;;;;18.22;43.96;101194.75;5055558;28;20049;-50
2023/04/08 07:17:04;;;;;;;9.10;5.50;;;;;;;18.23;44.08;101196.44;5055236;28;20052;-51
2023/04/08 07:19:31;;;;;;;6.50;5.10;;;;;;;18.23;44.01;101194.66;5055024;28;20045;-46
2023/04/08 07:21:59;;;;;;;5.47;4.80;;;;;;;18.24;44.02;101200.88;5054565;28;20064;-45
2023/04/08 07:24:26;;;;;;;6.50;5.28;;;;;;;18.23;44.22;101205.38;5054911;28;20425;-52
2023/04/08 07:26:55;;;;;;;7.03;5.20;;;;;;;18.22;44.13;101198.28;5054909;28;20049;-45
2023/04/08 07:29:22;;;;;;;6.20;4.72;;;;;;;18.22;44.15;101203.63;5054755;28;20056;-45
2023/04/08 07:31:50;;;;;;;6.80;5.28;;;;;;;18.23;44.21;101201.81;5054837;28;20053;-45
2023/04/08 07:34:17;;;;;;;8.52;5.00;;;;;;;18.23;44.16;101205.38;5054873;28;20067;-46
2023/04/08 07:36:45;;;;;;;6.70;4.80;;;;;;;18.24;44.22;101209.75;5055046;28;20037;-48
2023/04/08 07:39:12;;;;;;;5.72;4.57;;;;;;;18.23;44.31;101208.06;5054729;28;20119;-49
2023/04/08 07:41:39;;;;;;;5.10;4.60;;;;;;;18.23;44.28;101205.38;5054338;28;20060;-46
2023/04/08 07:44:07;;;;;;;5.38;4.50;;;;;;;18.24;44.28;101212.44;5054765;28;20041;-46
2023/04/08 07:46:37;;;;;;;8.05;4.53;;;;;;;18.24;44.39;101214.25;5054316;28;20044;-48
2023/04/08 07:49:05;;;;;;;7.03;4.90;;;;;;;18.25;44.26;101213.28;5054531;28;20048;-47
2023/04/08 07:51:33;;;;;;;5.30;4.75;;;;;;;18.23;44.42;101210.72;5054706;28;20475;-48
2023/04/08 07:54:00;;;;;;;6.15;4.05;;;;;;;18.24;44.61;101220.47;5054415;28;20048;-48
2023/04/08 07:56:28;;;;;;;7.55;5.32;;;;;;;18.25;44.22;101208.78;5054530;28;20052;-49
2023/04/08 07:58:55;;;;;;;6.40;4.72;;;;;;;18.26;44.39;101223.88;5054364;28;20049;-53
2023/04/08 08:01:23;;;;;;;9.38;4.60;;;;;;;18.27;44.31;101217.56;5054355;28;20049;-51
2023/04/08 08:03:51;;;;;;;6.13;5.05;;;;;;;18.28;44.28;101216.59;5054121;28;20061;-50
2023/04/08 08:06:20;;;;;;;7.60;4.90;;;;;;;18.28;44.29;101208.56;5054422;28;20048;-51
2023/04/08 08:08:48;;;;;;;6.72;5.30;;;;;;;18.32;44.31;101216.38;5053675;28;20056;-51
2023/04/08 08:11:15;;;;;;;3.75;3.10;;;;;;;18.33;44.46;101210.88;5054021;28;20467;-52
2023/04/08 08:13:43;;;;;;;6.50;5.13;;;;;;;18.36;44.53;101215.16;5054019;28;20056;-50
2023/04/08 08:16:10;;;;;;;6.82;4.90;;;;;;;18.36;44.60;101215.16;5054024;28;20049;-47
2023/04/08 08:18:39;;;;;;;5.55;3.63;;;;;;;18.39;44.67;101223.84;5053789;28;20044;-47
2023/04/08 08:21:07;;;;;;;6.50;4.75;;;;;;;18.41;44.60;101210.31;5054033;28;20045;-51
2023/04/08 08:23:36;;;;;;;8.13;4.30;;;;;;;18.43;44.41;101221.75;5053870;28;20056;-47
2023/04/08 08:26:06;;;;;;;6.80;4.88;;;;;;;18.43;44.62;101217.28;5054123;28;20056;-56
2023/04/08 08:28:33;;;;;;;8.27;6.30;;;;;;;18.44;44.58;101215.44;5054055;28;20045;-53
2023/04/08 08:31:04;;;;;;;7.72;6.47;;;;;;;18.42;44.57;101218.22;5054184;28;20076;-55
2023/04/08 08:33:32;;;;;;;9.20;7.43;;;;;;;18.43;44.42;101216.38;5053224;28;20064;-55
2023/04/08 08:36:00;;;;;;;7.57;6.28;;;;;;;18.42;44.22;101226.25;5053720;28;20060;-55
2023/04/08 08:38:27;;;;;;;9.88;8.18;;;;;;;18.41;44.38;101227.25;5053848;28;20037;-55
2023/04/08 08:40:59;;;;;;;8.70;6.43;;;;;;;18.40;44.51;101222.00;5053443;28;20045;-52
2023/04/08 08:43:27;;;;;;;10.95;7.85;;;;;;;18.39;44.19;101221.16;5053806;28;20056;-55
2023/04/08 08:45:55;;;;;;;9.70;7.80;;;;;;;18.38;44.02;101218.56;5053789;28;20049;-55
2023/04/08 08:48:22;;;;;;;8.95;7.90;;;;;;;18.37;44.18;101223.06;5053016;28;20049;-56
2023/04/08 08:50:50;;;;;;;10.60;8.27;;;;;;;18.36;44.23;101225.88;5053569;28;20049;-55
2023/04/08 08:53:19;;;;;;;10.90;8.57;;;;;;;18.35;44.06;101225.03;5052540;28;20045;-55
2023/04/08 08:55:47;;;;;;;9.13;7.57;;;;;;;18.35;44.05;101230.41;5053640;28;20413;-55
2023/04/08 08:58:17;;;;;;;7.80;6.70;;;;;;;18.37;44.19;101225.75;5053528;28;20483;-55
2023/04/08 09:00:45;;;;;;;8.45;6.10;;;;;;;18.38;44.28;101224.78;5053389;28;20053;-55
2023/04/08 09:03:17;;;;;;;11.05;6.75;;;;;;;18.41;44.32;101224.56;5053399;28;20490;-56
2023/04/08 09:05:50;;;;;;;7.30;6.18;;;;;;;18.43;44.35;101221.75;5053442;28;20049;-55
2023/04/08 09:08:25;;;;;;;6.53;5.47;;;;;;;18.43;44.35;101224.44;5053371;28;20465;-55
2023/04/08 09:10:54;;;;;;;6.32;5.50;;;;;;;18.44;44.43;101223.47;5053645;28;20041;-51
2023/04/08 09:13:23;;;;;;;7.88;6.57;;;;;;;18.43;44.37;101224.44;5053225;28;20068;-46
2023/04/08 09:16:05;;;;;;;8.05;4.68;;;;;;;18.43;44.54;101228.00;5053258;28;20056;-45
2023/04/08 09:18:32;;;;;;;7.78;5.63;;;;;;;18.45;44.53;101226.03;5035964;28;20045;-45
2023/04/08 09:21:01;;;;;;;7.13;4.40;;;;;;;18.48;44.79;101225.81;5053375;28;20049;-48
2023/04/08 09:23:51;;;;;;;8.18;4.75;;;;;;;18.57;44.68;101226.06;5053299;28;20044;-47
2023/04/08 09:26:23;;;;;;;7.43;3.60;;;;;;;18.69;44.50;101228.66;5053140;28;20049;-46
2023/04/08 09:29:03;;;;;;;7.40;4.05;;;;;;;18.74;44.47;101222.97;5052780;28;20056;-49
2023/04/08 09:31:55;;;;;;;7.68;3.85;;;;;;;18.77;44.53;101220.91;5053280;28;20068;-47
2023/04/08 09:34:25;;;;;;;6.93;3.75;;;;;;;18.76;44.59;101216.53;5053140;28;20403;-54
2023/04/08 09:36:54;;;;;;;6.60;3.67;;;;;;;18.77;44.41;101217.38;5053237;28;20376;-48
2023/04/08 09:39:23;;;;;;;7.43;3.55;;;;;;;18.74;44.37;101218.47;5052080;28;20053;-46
2023/04/08 09:41:51;;;;;;;7.38;4.78;;;;;;;18.72;44.14;101216.91;5053353;28;20049;-48
2023/04/08 09:44:20;;;;;;;7.53;3.63;;;;;;;18.69;44.18;101223.31;5053000;28;20056;-46
2023/04/08 09:46:48;;;;;;;5.82;4.72;;;;;;;18.69;44.45;101217.09;5053139;28;20045;-48
2023/04/08 09:49:48;;;;;;;6.60;4.13;;;;;;;18.66;44.33;101217.31;5052982;28;20054;-46
2023/04/08 09:52:20;;;;;;;5.32;3.58;;;;;;;18.64;44.17;101222.81;5052615;28;20057;-48
2023/04/08 09:54:52;;;;;;;5.65;3.60;;;;;;;18.66;44.24;101214.63;5051930;28;20049;-47
2023/04/08 09:57:42;;;;;;;5.00;3.30;;;;;;;18.66;44.54;101218.16;5052866;28;20376;-47
2023/04/08 10:00:14;;;;;;;5.13;3.42;;;;;;;18.66;44.66;101210.13;5053178;28;20041;-45
2023/04/08 10:02:55;;;;;;;8.30;4.00;;;;;;;18.67;44.54;101208.28;5052441;28;20060;-49
2023/04/08 10:05:24;;;;;;;5.30;3.58;;;;;;;18.65;44.73;101211.09;5055386;28;20045;-46
2023/04/08 10:07:51;;;;;;;6.07;3.75;;;;;;;18.65;44.66;101210.25;5055174;28;20053;-50
2023/04/08 10:10:19;;;;;;;5.88;3.45;;;;;;;18.63;44.56;101207.66;5056380;28;20045;-48
2023/04/08 10:12:48;;;;;;;5.22;3.65;;;;;;;18.65;44.56;101202.22;5056374;28;20463;-48
2023/04/08 10:15:28;;;;;;;5.57;3.80;;;;;;;18.65;44.74;101211.09;5056374;28;20049;-55
2023/04/08 10:18:19;;;;;;;5.03;3.53;;;;;;;18.64;44.62;101201.34;5056229;28;20048;-55
2023/04/08 10:20:48;;;;;;;7.35;4.43;;;;;;;18.64;44.46;101206.72;5055969;28;20049;-54
2023/04/08 10:23:17;;;;;;;5.78;3.63;;;;;;;18.64;44.45;101205.88;5056225;28;20049;-54
2023/04/08 10:25:48;;;;;;;4.97;3.40;;;;;;;18.65;44.42;101200.38;5056301;28;20476;-48
2023/04/08 10:28:18;;;;;;;4.45;2.97;;;;;;;18.65;44.65;101199.53;5055960;28;20037;-47
2023/04/08 10:30:47;;;;;;;5.25;3.53;;;;;;;18.65;44.47;101200.38;5056122;28;20045;-45
2023/04/08 10:33:35;;;;;;;5.05;3.35;;;;;;;18.66;44.47;101204.75;5056111;28;20055;-49
2023/04/08 10:36:08;;;;;;;5.45;2.97;;;;;;;18.65;44.48;101200.38;5050489;28;20045;-55
2023/04/08 10:38:41;;;;;;;5.22;2.97;;;;;;;18.67;44.53;101192.19;5048307;28;20037;-56
2023/04/08 10:41:12;;;;;;;6.90;4.03;;;;;;;18.67;44.25;101187.69;5054703;28;20056;-55
2023/04/08 10:43:40;;;;;;;5.45;4.40;;;;;;;18.68;44.01;101192.09;5036615;28;20033;-55
2023/04/08 10:46:10;;;;;;;6.35;3.92;;;;;;;18.67;44.31;101186.84;5054716;28;20062;-57
2023/04/08 10:48:38;;;;;;;7.78;3.45;;;;;;;18.67;44.49;101182.31;5055252;28;20045;-55
2023/04/08 10:51:05;;;;;;;5.38;3.40;;;;;;;18.68;44.20;101189.41;5055334;28;20059;-56
2023/04/08 10:53:35;;;;;;;4.82;2.97;;;;;;;18.70;44.57;101186.63;5055141;28;20056;-56
2023/04/08 10:56:06;;;;;;;4.93;3.17;;;;;;;18.69;44.51;101185.75;5055211;28;20049;-55
2023/04/08 10:58:38;;;;;;;6.95;3.40;;;;;;;18.71;44.56;101175.78;5054007;28;20045;-54
2023/04/08 11:01:06;;;;;;;5.90;3.75;;;;;;;18.72;44.09;101190.06;5055397;28;20463;-56
2023/04/08 11:03:35;;;;;;;7.43;3.50;;;;;;;18.71;43.96;101189.19;5053807;28;20049;-55
2023/04/08 11:06:04;;;;;;;6.13;3.20;;;;;;;18.71;44.22;101174.94;5054854;28;20049;-47
2023/04/08 11:08:33;;;;;;;7.97;3.63;;;;;;;18.72;43.99;101173.97;5055360;28;20052;-46
2023/04/08 11:11:00;;;;;;;10.02;4.10;;;;;;;18.71;44.16;101177.63;5055121;28;20048;-46
2023/04/08 11:13:29;;;;;;;7.03;3.63;;;;;;;18.70;44.22;101171.41;5054720;28;20407;-48
2023/04/08 11:15:58;;;;;;;6.25;3.63;;;;;;;18.69;44.09;101172.34;5052562;28;20057;-56
2023/04/08 11:18:27;;;;;;;4.47;2.80;;;;;;;18.69;44.11;101169.66;5054237;28;20045;-56
2023/04/08 11:20:55;;;;;;;4.15;2.75;;;;;;;18.68;44.12;101164.44;5054076;28;20048;-56
2023/04/08 11:23:25;;;;;;;5.55;3.38;;;;;;;18.68;44.16;101162.59;5054441;28;20044;-56
2023/04/08 11:25:53;;;;;;;6.18;3.15;;;;;;;18.67;43.87;101168.06;5054010;28;20495;-55
2023/04/08 11:28:21;;;;;;;6.22;3.72;;;;;;;18.66;43.79;101169.91;5053931;28;20037;-56
2023/04/08 11:30:49;;;;;;;7.82;3.05;;;;;;;18.66;43.65;101159.16;5053833;28;20044;-56
2023/04/08 11:33:16;;;;;;;4.82;3.00;;;;;;;18.66;43.64;101155.63;5054114;28;20052;-56
2023/04/08 11:35:44;;;;;;;8.07;3.70;;;;;;;18.65;43.52;101152.09;5053868;28;20048;-56